sensor_id;sensor_type;location;lat;lon;timestamp;P1;durP1;ratioP1;P2;durP2;ratioP2
35644;SDS011;21764;52.042;6.830;2024-03-06T00:09:39;55.28;;;32.55;;
35644;SDS011;21764;52.042;6.830;2024-03-06T00:14:40;60.03;;;33.05;;
35644;SDS011;21764;52.042;6.830;2024-03-06T00:19:41;57.90;;;32.38;;
35644;SDS011;21764;52.042;6.830;2024-03-06T00:24:43;52.90;;;30.20;;
35644;SDS011;21764;52.042;6.830;2024-03-06T00:29:44;54.67;;;31.27;;
35644;SDS011;21764;52.042;6.830;2024-03-06T00:34:45;49.85;;;29.80;;
35644;SDS011;21764;52.042;6.830;2024-03-06T00:39:46;48.67;;;28.58;;
35644;SDS011;21764;52.042;6.830;2024-03-06T00:44:47;49.03;;;28.60;;
35644;SDS011;21764;52.042;6.830;2024-03-06T00:49:48;51.08;;;28.80;;
35644;SDS011;21764;52.042;6.830;2024-03-06T00:54:49;46.80;;;28.80;;
35644;SDS011;21764;52.042;6.830;2024-03-06T00:59:50;50.58;;;28.52;;
35644;SDS011;21764;52.042;6.830;2024-03-06T01:04:51;48.75;;;29.90;;
35644;SDS011;21764;52.042;6.830;2024-03-06T01:09:52;46.30;;;28.80;;
35644;SDS011;21764;52.042;6.830;2024-03-06T01:14:53;58.15;;;31.45;;
35644;SDS011;21764;52.042;6.830;2024-03-06T01:19:54;49.88;;;30.08;;
35644;SDS011;21764;52.042;6.830;2024-03-06T01:24:55;52.70;;;31.75;;
35644;SDS011;21764;52.042;6.830;2024-03-06T01:29:56;68.63;;;42.22;;
35644;SDS011;21764;52.042;6.830;2024-03-06T01:34:57;59.00;;;35.03;;
35644;SDS011;21764;52.042;6.830;2024-03-06T01:39:58;56.03;;;31.63;;
35644;SDS011;21764;52.042;6.830;2024-03-06T01:44:59;48.13;;;31.00;;
35644;SDS011;21764;52.042;6.830;2024-03-06T01:50:01;52.85;;;28.95;;
35644;SDS011;21764;52.042;6.830;2024-03-06T01:55:02;53.08;;;30.80;;
35644;SDS011;21764;52.042;6.830;2024-03-06T02:00:05;57.80;;;31.98;;
35644;SDS011;21764;52.042;6.830;2024-03-06T02:05:08;56.28;;;32.75;;
35644;SDS011;21764;52.042;6.830;2024-03-06T02:10:09;54.78;;;32.60;;
35644;SDS011;21764;52.042;6.830;2024-03-06T02:15:12;58.05;;;33.67;;
35644;SDS011;21764;52.042;6.830;2024-03-06T02:20:13;65.53;;;36.28;;
35644;SDS011;21764;52.042;6.830;2024-03-06T02:25:16;61.58;;;35.10;;
35644;SDS011;21764;52.042;6.830;2024-03-06T02:30:20;62.72;;;38.80;;
35644;SDS011;21764;52.042;6.830;2024-03-06T02:35:21;66.63;;;37.33;;
35644;SDS011;21764;52.042;6.830;2024-03-06T02:40:23;62.33;;;35.45;;
35644;SDS011;21764;52.042;6.830;2024-03-06T02:45:24;61.53;;;36.28;;
35644;SDS011;21764;52.042;6.830;2024-03-06T02:50:25;64.80;;;37.95;;
35644;SDS011;21764;52.042;6.830;2024-03-06T02:55:26;71.90;;;40.28;;
35644;SDS011;21764;52.042;6.830;2024-03-06T03:00:27;105.93;;;48.95;;
35644;SDS011;21764;52.042;6.830;2024-03-06T03:05:28;98.28;;;46.05;;
35644;SDS011;21764;52.042;6.830;2024-03-06T03:10:29;84.07;;;41.20;;
35644;SDS011;21764;52.042;6.830;2024-03-06T03:15:30;72.15;;;38.63;;
35644;SDS011;21764;52.042;6.830;2024-03-06T03:20:32;69.50;;;40.20;;
35644;SDS011;21764;52.042;6.830;2024-03-06T03:25:33;68.03;;;38.63;;
35644;SDS011;21764;52.042;6.830;2024-03-06T03:30:34;72.50;;;40.67;;
35644;SDS011;21764;52.042;6.830;2024-03-06T03:35:35;79.68;;;42.40;;
35644;SDS011;21764;52.042;6.830;2024-03-06T03:40:37;75.80;;;42.08;;
35644;SDS011;21764;52.042;6.830;2024-03-06T03:45:38;80.32;;;44.83;;
35644;SDS011;21764;52.042;6.830;2024-03-06T03:50:39;81.47;;;45.47;;
35644;SDS011;21764;52.042;6.830;2024-03-06T03:55:40;87.10;;;43.05;;
35644;SDS011;21764;52.042;6.830;2024-03-06T04:00:41;77.00;;;43.72;;
35644;SDS011;21764;52.042;6.830;2024-03-06T04:05:42;84.13;;;44.67;;
35644;SDS011;21764;52.042;6.830;2024-03-06T04:10:43;72.05;;;42.72;;
35644;SDS011;21764;52.042;6.830;2024-03-06T04:15:46;75.67;;;43.43;;
35644;SDS011;21764;52.042;6.830;2024-03-06T04:20:47;80.05;;;42.42;;
35644;SDS011;21764;52.042;6.830;2024-03-06T04:25:49;73.13;;;42.55;;
35644;SDS011;21764;52.042;6.830;2024-03-06T04:30:50;75.63;;;44.88;;
35644;SDS011;21764;52.042;6.830;2024-03-06T04:35:51;85.00;;;44.70;;
35644;SDS011;21764;52.042;6.830;2024-03-06T04:40:52;81.13;;;45.30;;
35644;SDS011;21764;52.042;6.830;2024-03-06T04:45:53;79.57;;;44.50;;
35644;SDS011;21764;52.042;6.830;2024-03-06T04:50:54;77.70;;;43.92;;
35644;SDS011;21764;52.042;6.830;2024-03-06T04:55:55;87.90;;;44.63;;
35644;SDS011;21764;52.042;6.830;2024-03-06T05:00:56;87.82;;;47.78;;
35644;SDS011;21764;52.042;6.830;2024-03-06T05:05:57;87.63;;;48.33;;
35644;SDS011;21764;52.042;6.830;2024-03-06T05:11:01;86.45;;;45.72;;
35644;SDS011;21764;52.042;6.830;2024-03-06T05:16:02;107.27;;;53.63;;
35644;SDS011;21764;52.042;6.830;2024-03-06T05:21:03;84.38;;;46.90;;
35644;SDS011;21764;52.042;6.830;2024-03-06T05:26:04;95.18;;;47.53;;
35644;SDS011;21764;52.042;6.830;2024-03-06T05:31:15;161.00;;;54.38;;
35644;SDS011;21764;52.042;6.830;2024-03-06T05:36:20;94.63;;;51.83;;
35644;SDS011;21764;52.042;6.830;2024-03-06T05:41:21;126.68;;;51.45;;
35644;SDS011;21764;52.042;6.830;2024-03-06T05:46:22;285.90;;;53.72;;
35644;SDS011;21764;52.042;6.830;2024-03-06T05:51:23;331.30;;;55.65;;
35644;SDS011;21764;52.042;6.830;2024-03-06T05:56:24;385.13;;;59.22;;
35644;SDS011;21764;52.042;6.830;2024-03-06T06:01:25;734.03;;;69.88;;
35644;SDS011;21764;52.042;6.830;2024-03-06T06:06:26;577.50;;;65.32;;
35644;SDS011;21764;52.042;6.830;2024-03-06T06:11:34;530.38;;;66.28;;
35644;SDS011;21764;52.042;6.830;2024-03-06T06:16:39;328.90;;;62.35;;
35644;SDS011;21764;52.042;6.830;2024-03-06T06:26:41;683.60;;;71.93;;
35644;SDS011;21764;52.042;6.830;2024-03-06T06:31:42;637.00;;;75.15;;
35644;SDS011;21764;52.042;6.830;2024-03-06T06:36:47;473.20;;;66.25;;
35644;SDS011;21764;52.042;6.830;2024-03-06T06:41:48;566.07;;;70.50;;
35644;SDS011;21764;52.042;6.830;2024-03-06T06:46:49;529.80;;;70.95;;
35644;SDS011;21764;52.042;6.830;2024-03-06T06:51:50;881.00;;;88.25;;
35644;SDS011;21764;52.042;6.830;2024-03-06T06:56:51;420.73;;;70.10;;
35644;SDS011;21764;52.042;6.830;2024-03-06T07:01:52;665.60;;;82.00;;
35644;SDS011;21764;52.042;6.830;2024-03-06T07:06:54;447.13;;;67.53;;
35644;SDS011;21764;52.042;6.830;2024-03-06T07:11:55;717.05;;;85.05;;
35644;SDS011;21764;52.042;6.830;2024-03-06T07:16:56;488.52;;;76.45;;
35644;SDS011;21764;52.042;6.830;2024-03-06T07:21:57;392.83;;;67.72;;
35644;SDS011;21764;52.042;6.830;2024-03-06T07:26:58;587.20;;;77.80;;
35644;SDS011;21764;52.042;6.830;2024-03-06T07:32:01;507.15;;;70.88;;
35644;SDS011;21764;52.042;6.830;2024-03-06T07:37:02;346.23;;;62.85;;
35644;SDS011;21764;52.042;6.830;2024-03-06T07:42:04;331.67;;;61.60;;
35644;SDS011;21764;52.042;6.830;2024-03-06T07:47:05;396.33;;;69.55;;
35644;SDS011;21764;52.042;6.830;2024-03-06T07:52:06;260.70;;;64.65;;
35644;SDS011;21764;52.042;6.830;2024-03-06T07:57:08;164.15;;;58.90;;
35644;SDS011;21764;52.042;6.830;2024-03-06T08:02:09;101.35;;;47.35;;
35644;SDS011;21764;52.042;6.830;2024-03-06T08:07:10;56.80;;;40.65;;
35644;SDS011;21764;52.042;6.830;2024-03-06T08:12:11;48.28;;;31.77;;
35644;SDS011;21764;52.042;6.830;2024-03-06T08:17:12;36.63;;;27.08;;
35644;SDS011;21764;52.042;6.830;2024-03-06T08:22:13;40.35;;;30.38;;
35644;SDS011;21764;52.042;6.830;2024-03-06T08:27:14;43.30;;;30.95;;
35644;SDS011;21764;52.042;6.830;2024-03-06T08:32:15;46.45;;;30.80;;
35644;SDS011;21764;52.042;6.830;2024-03-06T08:37:16;51.13;;;31.60;;
35644;SDS011;21764;52.042;6.830;2024-03-06T08:42:18;45.67;;;29.73;;
35644;SDS011;21764;52.042;6.830;2024-03-06T08:47:19;43.22;;;28.20;;
35644;SDS011;21764;52.042;6.830;2024-03-06T08:52:20;35.60;;;25.05;;
35644;SDS011;21764;52.042;6.830;2024-03-06T08:57:21;32.22;;;23.35;;
35644;SDS011;21764;52.042;6.830;2024-03-06T09:02:22;31.88;;;22.38;;
35644;SDS011;21764;52.042;6.830;2024-03-06T09:07:23;28.20;;;20.92;;
35644;SDS011;21764;52.042;6.830;2024-03-06T09:12:24;29.58;;;22.00;;
35644;SDS011;21764;52.042;6.830;2024-03-06T09:17:26;30.38;;;22.50;;
35644;SDS011;21764;52.042;6.830;2024-03-06T09:22:27;28.00;;;21.13;;
35644;SDS011;21764;52.042;6.830;2024-03-06T09:27:28;31.48;;;21.65;;
35644;SDS011;21764;52.042;6.830;2024-03-06T09:32:29;36.22;;;20.90;;
35644;SDS011;21764;52.042;6.830;2024-03-06T09:37:30;27.10;;;20.23;;
35644;SDS011;21764;52.042;6.830;2024-03-06T09:42:31;34.40;;;21.95;;
35644;SDS011;21764;52.042;6.830;2024-03-06T09:47:32;31.10;;;22.08;;
35644;SDS011;21764;52.042;6.830;2024-03-06T09:57:37;29.95;;;21.17;;
35644;SDS011;21764;52.042;6.830;2024-03-06T10:02:41;30.02;;;21.48;;
35644;SDS011;21764;52.042;6.830;2024-03-06T10:07:47;29.40;;;21.45;;
35644;SDS011;21764;52.042;6.830;2024-03-06T10:12:49;25.33;;;20.00;;
35644;SDS011;21764;52.042;6.830;2024-03-06T10:17:50;23.63;;;18.70;;
35644;SDS011;21764;52.042;6.830;2024-03-06T10:22:51;28.25;;;21.05;;
35644;SDS011;21764;52.042;6.830;2024-03-06T10:33:06;26.35;;;20.08;;
35644;SDS011;21764;52.042;6.830;2024-03-06T10:38:08;23.23;;;18.33;;
35644;SDS011;21764;52.042;6.830;2024-03-06T10:43:11;25.10;;;17.85;;
35644;SDS011;21764;52.042;6.830;2024-03-06T10:48:15;24.88;;;18.70;;
35644;SDS011;21764;52.042;6.830;2024-03-06T10:53:17;25.65;;;18.17;;
35644;SDS011;21764;52.042;6.830;2024-03-06T10:58:18;24.17;;;18.50;;
35644;SDS011;21764;52.042;6.830;2024-03-06T11:03:19;27.85;;;19.15;;
35644;SDS011;21764;52.042;6.830;2024-03-06T11:08:20;28.67;;;20.73;;
35644;SDS011;21764;52.042;6.830;2024-03-06T11:13:22;27.48;;;19.30;;
35644;SDS011;21764;52.042;6.830;2024-03-06T11:23:31;29.58;;;20.60;;
35644;SDS011;21764;52.042;6.830;2024-03-06T11:28:33;28.65;;;20.83;;
35644;SDS011;21764;52.042;6.830;2024-03-06T11:33:39;30.45;;;21.48;;
35644;SDS011;21764;52.042;6.830;2024-03-06T11:38:40;31.10;;;20.13;;
35644;SDS011;21764;52.042;6.830;2024-03-06T11:43:42;28.20;;;20.58;;
35644;SDS011;21764;52.042;6.830;2024-03-06T11:48:43;32.40;;;22.38;;
35644;SDS011;21764;52.042;6.830;2024-03-06T11:53:52;33.28;;;22.35;;
35644;SDS011;21764;52.042;6.830;2024-03-06T11:58:54;30.65;;;20.63;;
35644;SDS011;21764;52.042;6.830;2024-03-06T12:03:55;28.65;;;20.48;;
35644;SDS011;21764;52.042;6.830;2024-03-06T12:08:57;29.90;;;19.35;;
35644;SDS011;21764;52.042;6.830;2024-03-06T12:13:58;35.40;;;19.35;;
35644;SDS011;21764;52.042;6.830;2024-03-06T12:18:59;40.65;;;23.58;;
35644;SDS011;21764;52.042;6.830;2024-03-06T12:29:05;21.70;;;13.27;;
35644;SDS011;21764;52.042;6.830;2024-03-06T12:34:06;20.60;;;12.95;;
35644;SDS011;21764;52.042;6.830;2024-03-06T12:39:07;24.02;;;15.68;;
35644;SDS011;21764;52.042;6.830;2024-03-06T12:44:19;27.95;;;17.00;;
35644;SDS011;21764;52.042;6.830;2024-03-06T12:49:20;22.85;;;16.17;;
35644;SDS011;21764;52.042;6.830;2024-03-06T12:54:21;28.05;;;20.10;;
35644;SDS011;21764;52.042;6.830;2024-03-06T12:59:23;32.92;;;20.58;;
35644;SDS011;21764;52.042;6.830;2024-03-06T13:04:23;31.17;;;20.13;;
35644;SDS011;21764;52.042;6.830;2024-03-06T13:09:24;53.08;;;32.72;;
35644;SDS011;21764;52.042;6.830;2024-03-06T13:14:25;59.15;;;34.03;;
35644;SDS011;21764;52.042;6.830;2024-03-06T13:19:27;66.63;;;37.00;;
35644;SDS011;21764;52.042;6.830;2024-03-06T13:24:28;71.68;;;36.80;;
35644;SDS011;21764;52.042;6.830;2024-03-06T13:29:29;63.10;;;31.15;;
35644;SDS011;21764;52.042;6.830;2024-03-06T13:34:30;66.75;;;36.53;;
35644;SDS011;21764;52.042;6.830;2024-03-06T13:39:31;67.13;;;36.80;;
35644;SDS011;21764;52.042;6.830;2024-03-06T13:44:32;63.47;;;34.65;;
35644;SDS011;21764;52.042;6.830;2024-03-06T13:49:34;76.45;;;35.35;;
35644;SDS011;21764;52.042;6.830;2024-03-06T13:54:39;65.05;;;35.03;;
35644;SDS011;21764;52.042;6.830;2024-03-06T13:59:41;59.05;;;30.52;;
35644;SDS011;21764;52.042;6.830;2024-03-06T14:04:42;64.57;;;34.97;;
35644;SDS011;21764;52.042;6.830;2024-03-06T14:09:43;61.60;;;33.85;;
35644;SDS011;21764;52.042;6.830;2024-03-06T14:14:44;58.58;;;33.08;;
35644;SDS011;21764;52.042;6.830;2024-03-06T14:19:47;58.25;;;32.05;;
35644;SDS011;21764;52.042;6.830;2024-03-06T14:24:49;57.85;;;32.20;;
35644;SDS011;21764;52.042;6.830;2024-03-06T14:29:50;58.72;;;33.78;;
35644;SDS011;21764;52.042;6.830;2024-03-06T14:34:54;65.90;;;35.38;;
35644;SDS011;21764;52.042;6.830;2024-03-06T14:39:55;63.17;;;34.05;;
35644;SDS011;21764;52.042;6.830;2024-03-06T14:44:56;57.00;;;32.85;;
35644;SDS011;21764;52.042;6.830;2024-03-06T14:49:58;55.17;;;30.08;;
35644;SDS011;21764;52.042;6.830;2024-03-06T14:54:59;54.03;;;30.20;;
35644;SDS011;21764;52.042;6.830;2024-03-06T15:00:00;57.00;;;31.02;;
35644;SDS011;21764;52.042;6.830;2024-03-06T15:05:06;53.35;;;29.88;;
35644;SDS011;21764;52.042;6.830;2024-03-06T15:10:07;55.55;;;28.77;;
35644;SDS011;21764;52.042;6.830;2024-03-06T15:15:09;52.03;;;30.08;;
35644;SDS011;21764;52.042;6.830;2024-03-06T15:20:10;50.58;;;29.40;;
35644;SDS011;21764;52.042;6.830;2024-03-06T15:25:11;60.15;;;30.63;;
35644;SDS011;21764;52.042;6.830;2024-03-06T15:30:12;52.97;;;29.42;;
35644;SDS011;21764;52.042;6.830;2024-03-06T15:35:14;55.60;;;28.15;;
35644;SDS011;21764;52.042;6.830;2024-03-06T15:40:15;54.28;;;29.60;;
35644;SDS011;21764;52.042;6.830;2024-03-06T15:45:17;56.97;;;30.17;;
35644;SDS011;21764;52.042;6.830;2024-03-06T15:50:18;58.42;;;33.97;;
35644;SDS011;21764;52.042;6.830;2024-03-06T15:55:19;51.63;;;29.02;;
35644;SDS011;21764;52.042;6.830;2024-03-06T16:00:20;52.97;;;32.17;;
35644;SDS011;21764;52.042;6.830;2024-03-06T16:05:21;55.78;;;29.73;;
35644;SDS011;21764;52.042;6.830;2024-03-06T16:10:22;56.05;;;30.42;;
35644;SDS011;21764;52.042;6.830;2024-03-06T16:15:23;56.10;;;32.83;;
35644;SDS011;21764;52.042;6.830;2024-03-06T16:20:24;63.80;;;36.22;;
35644;SDS011;21764;52.042;6.830;2024-03-06T16:25:25;58.15;;;32.40;;
35644;SDS011;21764;52.042;6.830;2024-03-06T16:30:26;55.63;;;30.58;;
35644;SDS011;21764;52.042;6.830;2024-03-06T16:35:27;56.88;;;30.92;;
35644;SDS011;21764;52.042;6.830;2024-03-06T16:40:28;59.78;;;32.97;;
35644;SDS011;21764;52.042;6.830;2024-03-06T16:45:29;60.22;;;29.20;;
35644;SDS011;21764;52.042;6.830;2024-03-06T16:50:30;60.55;;;33.53;;
35644;SDS011;21764;52.042;6.830;2024-03-06T16:55:31;55.35;;;30.00;;
35644;SDS011;21764;52.042;6.830;2024-03-06T17:00:32;56.92;;;28.45;;
35644;SDS011;21764;52.042;6.830;2024-03-06T17:05:34;56.90;;;33.28;;
35644;SDS011;21764;52.042;6.830;2024-03-06T17:10:35;85.75;;;46.97;;
35644;SDS011;21764;52.042;6.830;2024-03-06T17:15:36;70.53;;;37.65;;
35644;SDS011;21764;52.042;6.830;2024-03-06T17:20:37;68.30;;;35.88;;
35644;SDS011;21764;52.042;6.830;2024-03-06T17:25:38;65.80;;;35.80;;
35644;SDS011;21764;52.042;6.830;2024-03-06T17:30:39;67.53;;;36.50;;
35644;SDS011;21764;52.042;6.830;2024-03-06T17:35:44;70.78;;;38.35;;
35644;SDS011;21764;52.042;6.830;2024-03-06T17:40:45;75.07;;;38.38;;
35644;SDS011;21764;52.042;6.830;2024-03-06T17:45:47;70.30;;;36.13;;
35644;SDS011;21764;52.042;6.830;2024-03-06T17:50:48;75.20;;;39.05;;
35644;SDS011;21764;52.042;6.830;2024-03-06T17:55:49;71.35;;;36.40;;
35644;SDS011;21764;52.042;6.830;2024-03-06T18:00:50;84.65;;;43.25;;
35644;SDS011;21764;52.042;6.830;2024-03-06T18:05:51;82.82;;;44.83;;
35644;SDS011;21764;52.042;6.830;2024-03-06T18:10:52;102.50;;;46.72;;
35644;SDS011;21764;52.042;6.830;2024-03-06T18:15:53;106.35;;;51.40;;
35644;SDS011;21764;52.042;6.830;2024-03-06T18:20:54;122.30;;;54.55;;
35644;SDS011;21764;52.042;6.830;2024-03-06T18:25:56;115.63;;;54.22;;
35644;SDS011;21764;52.042;6.830;2024-03-06T18:30:57;84.07;;;42.85;;
35644;SDS011;21764;52.042;6.830;2024-03-06T18:35:58;82.60;;;38.83;;
35644;SDS011;21764;52.042;6.830;2024-03-06T18:40:59;76.03;;;39.97;;
35644;SDS011;21764;52.042;6.830;2024-03-06T18:46:00;84.13;;;42.45;;
35644;SDS011;21764;52.042;6.830;2024-03-06T18:51:01;75.70;;;39.25;;
35644;SDS011;21764;52.042;6.830;2024-03-06T18:56:03;83.78;;;43.03;;
35644;SDS011;21764;52.042;6.830;2024-03-06T19:01:04;78.65;;;41.90;;
35644;SDS011;21764;52.042;6.830;2024-03-06T19:06:06;87.72;;;42.65;;
35644;SDS011;21764;52.042;6.830;2024-03-06T19:11:07;84.50;;;41.13;;
35644;SDS011;21764;52.042;6.830;2024-03-06T19:16:09;84.20;;;42.35;;
35644;SDS011;21764;52.042;6.830;2024-03-06T19:21:10;91.88;;;42.85;;
35644;SDS011;21764;52.042;6.830;2024-03-06T19:26:11;86.20;;;41.97;;
35644;SDS011;21764;52.042;6.830;2024-03-06T19:31:13;82.57;;;41.40;;
35644;SDS011;21764;52.042;6.830;2024-03-06T19:36:15;81.57;;;44.17;;
35644;SDS011;21764;52.042;6.830;2024-03-06T19:41:16;98.25;;;47.42;;
35644;SDS011;21764;52.042;6.830;2024-03-06T19:46:17;100.35;;;50.50;;
35644;SDS011;21764;52.042;6.830;2024-03-06T19:51:18;96.47;;;51.08;;
35644;SDS011;21764;52.042;6.830;2024-03-06T19:56:19;83.45;;;43.83;;
35644;SDS011;21764;52.042;6.830;2024-03-06T20:01:20;90.00;;;45.03;;
35644;SDS011;21764;52.042;6.830;2024-03-06T20:06:21;89.13;;;45.38;;
35644;SDS011;21764;52.042;6.830;2024-03-06T20:11:23;93.25;;;45.67;;
35644;SDS011;21764;52.042;6.830;2024-03-06T20:16:26;92.95;;;47.28;;
35644;SDS011;21764;52.042;6.830;2024-03-06T20:21:27;97.63;;;47.70;;
35644;SDS011;21764;52.042;6.830;2024-03-06T20:26:28;101.10;;;48.97;;
35644;SDS011;21764;52.042;6.830;2024-03-06T20:31:29;107.20;;;54.80;;
35644;SDS011;21764;52.042;6.830;2024-03-06T20:36:30;118.15;;;54.58;;
35644;SDS011;21764;52.042;6.830;2024-03-06T20:41:31;120.15;;;54.78;;
35644;SDS011;21764;52.042;6.830;2024-03-06T20:46:33;115.65;;;53.92;;
35644;SDS011;21764;52.042;6.830;2024-03-06T20:51:34;111.55;;;53.45;;
35644;SDS011;21764;52.042;6.830;2024-03-06T20:56:35;104.80;;;51.38;;
35644;SDS011;21764;52.042;6.830;2024-03-06T21:01:37;118.25;;;53.78;;
35644;SDS011;21764;52.042;6.830;2024-03-06T21:06:38;123.10;;;56.42;;
35644;SDS011;21764;52.042;6.830;2024-03-06T21:11:39;114.10;;;56.15;;
35644;SDS011;21764;52.042;6.830;2024-03-06T21:16:40;131.13;;;59.25;;
35644;SDS011;21764;52.042;6.830;2024-03-06T21:21:41;130.70;;;58.00;;
35644;SDS011;21764;52.042;6.830;2024-03-06T21:26:46;130.40;;;60.60;;
35644;SDS011;21764;52.042;6.830;2024-03-06T21:31:47;126.78;;;58.35;;
35644;SDS011;21764;52.042;6.830;2024-03-06T21:36:49;124.18;;;59.97;;
35644;SDS011;21764;52.042;6.830;2024-03-06T21:41:50;122.65;;;56.50;;
35644;SDS011;21764;52.042;6.830;2024-03-06T21:46:51;130.30;;;58.13;;
35644;SDS011;21764;52.042;6.830;2024-03-06T21:51:52;132.55;;;59.00;;
35644;SDS011;21764;52.042;6.830;2024-03-06T21:56:53;128.27;;;57.53;;
35644;SDS011;21764;52.042;6.830;2024-03-06T22:01:55;130.73;;;58.15;;
35644;SDS011;21764;52.042;6.830;2024-03-06T22:06:56;125.20;;;55.03;;
35644;SDS011;21764;52.042;6.830;2024-03-06T22:11:57;144.52;;;61.40;;
35644;SDS011;21764;52.042;6.830;2024-03-06T22:17:00;140.15;;;59.85;;
35644;SDS011;21764;52.042;6.830;2024-03-06T22:22:01;126.20;;;53.70;;
35644;SDS011;21764;52.042;6.830;2024-03-06T22:27:03;129.20;;;57.17;;
35644;SDS011;21764;52.042;6.830;2024-03-06T22:32:04;130.93;;;58.85;;
35644;SDS011;21764;52.042;6.830;2024-03-06T22:37:05;124.95;;;57.33;;
35644;SDS011;21764;52.042;6.830;2024-03-06T22:42:07;129.10;;;59.70;;
35644;SDS011;21764;52.042;6.830;2024-03-06T22:47:08;134.32;;;56.30;;
35644;SDS011;21764;52.042;6.830;2024-03-06T22:52:09;132.60;;;57.92;;
35644;SDS011;21764;52.042;6.830;2024-03-06T22:57:10;139.75;;;58.45;;
35644;SDS011;21764;52.042;6.830;2024-03-06T23:02:11;133.52;;;58.45;;
35644;SDS011;21764;52.042;6.830;2024-03-06T23:07:12;133.77;;;60.65;;
35644;SDS011;21764;52.042;6.830;2024-03-06T23:12:13;139.60;;;60.67;;
35644;SDS011;21764;52.042;6.830;2024-03-06T23:17:14;141.13;;;57.88;;
35644;SDS011;21764;52.042;6.830;2024-03-06T23:22:15;147.35;;;61.85;;
35644;SDS011;21764;52.042;6.830;2024-03-06T23:27:16;149.13;;;61.95;;
35644;SDS011;21764;52.042;6.830;2024-03-06T23:32:17;145.48;;;61.55;;
35644;SDS011;21764;52.042;6.830;2024-03-06T23:37:18;158.50;;;63.97;;
35644;SDS011;21764;52.042;6.830;2024-03-06T23:42:19;158.95;;;63.10;;
35644;SDS011;21764;52.042;6.830;2024-03-06T23:47:20;148.35;;;63.17;;
35644;SDS011;21764;52.042;6.830;2024-03-06T23:52:21;155.57;;;63.53;;
35644;SDS011;21764;52.042;6.830;2024-03-06T23:57:23;160.55;;;65.57;;
